createdAt,value
2019-04-07T00:06:46.388Z,18.20
2019-04-07T00:13:57.959Z,10.68
2019-04-07T00:16:33.394Z,11.15
2019-04-07T00:19:08.652Z,11.53
2019-04-07T00:21:43.927Z,10.75
2019-04-07T00:24:18.458Z,11.20
2019-04-07T00:26:52.872Z,11.65
2019-04-07T00:29:27.720Z,11.57
2019-04-07T00:32:02.605Z,10.95
2019-04-07T00:34:38.164Z,10.78
2019-04-07T00:37:14.066Z,11.53
2019-04-07T00:39:49.029Z,11.25
2019-04-07T00:44:56.654Z,12.65
2019-04-07T00:50:06.545Z,11.20
2019-04-07T00:52:41.698Z,15.05
2019-04-07T00:57:49.265Z,15.45
2019-04-07T01:00:25.174Z,14.70
2019-04-07T01:03:00.063Z,16.25
2019-04-07T01:08:10.775Z,16.65
2019-04-07T01:10:45.983Z,16.60
2019-04-07T01:13:21.074Z,18.52
2019-04-07T01:20:17.639Z,22.22
2019-04-07T01:22:52.853Z,26.35
2019-04-07T01:25:27.948Z,25.82
2019-04-07T01:28:03.074Z,23.90
2019-04-07T01:33:11.585Z,24.10
2019-04-07T01:35:49.211Z,24.12
2019-04-07T01:38:23.644Z,23.70
2019-04-07T01:41:04.144Z,25.23
2019-04-07T01:43:48.172Z,24.72
2019-04-07T01:46:40.519Z,25.20
2019-04-07T01:49:43.567Z,26.73
2019-04-07T01:52:23.651Z,24.07
2019-04-07T01:55:16.416Z,25.75
2019-04-07T01:58:16.353Z,26.57
2019-04-07T02:01:08.177Z,24.05
2019-04-07T02:03:59.215Z,25.15
2019-04-07T02:06:59.757Z,23.77
2019-04-07T02:10:00.499Z,21.37
2019-04-07T02:12:49.895Z,21.75
2019-04-07T02:15:32.072Z,22.10
2019-04-07T02:18:15.608Z,24.63
2019-04-07T02:21:23.751Z,17.90
2019-04-07T02:24:15.833Z,13.50
2019-04-07T02:27:16.461Z,15.68
2019-04-07T02:30:19.944Z,13.18
2019-04-07T02:33:12.792Z,12.50
2019-04-07T02:36:17.808Z,11.53
2019-04-07T02:38:58.830Z,10.28
2019-04-07T02:41:57.081Z,9.18
2019-04-07T02:44:55.205Z,9.18
2019-04-07T02:47:59.773Z,10.13
2019-04-07T02:50:53.446Z,11.07
2019-04-07T02:53:39.104Z,10.70
2019-04-07T02:56:36.196Z,11.05
2019-04-07T02:59:21.529Z,10.72
2019-04-07T03:02:15.474Z,9.80
2019-04-07T03:05:13.686Z,9.78
2019-04-07T03:08:10.651Z,10.13
2019-04-07T03:10:54.342Z,8.58
2019-04-07T03:13:46.829Z,10.10
2019-04-07T03:16:58.834Z,8.60
2019-04-07T03:19:58.694Z,9.23
2019-04-07T03:23:03.992Z,9.73
2019-04-07T03:25:56.703Z,10.18
2019-04-07T03:28:39.961Z,10.50
2019-04-07T03:31:27.323Z,9.68
2019-04-07T03:34:24.127Z,10.48
2019-04-07T03:40:06.627Z,9.45
2019-04-07T03:43:10.016Z,11.45
2019-04-07T03:45:52.073Z,10.48
2019-04-07T03:48:51.801Z,11.28
2019-04-07T03:51:54.573Z,12.33
2019-04-07T03:54:48.355Z,9.85
2019-04-07T03:57:54.888Z,10.78
2019-04-07T04:01:39.376Z,10.80
2019-04-07T04:04:34.217Z,10.28
2019-04-07T04:07:25.625Z,10.38
2019-04-07T04:10:12.797Z,12.15
2019-04-07T04:12:56.897Z,11.50
2019-04-07T04:15:39.681Z,10.68
2019-04-07T04:18:14.586Z,13.28
2019-04-07T04:23:22.714Z,8.25
2019-04-07T04:28:30.685Z,9.05
2019-04-07T04:31:06.723Z,11.88
2019-04-07T04:33:41.775Z,12.03
2019-04-07T04:36:17.773Z,11.53
2019-04-07T04:38:54.116Z,9.18
2019-04-07T04:41:29.413Z,10.20
2019-04-07T04:44:04.666Z,11.57
2019-04-07T04:46:42.671Z,6.75
2019-04-07T04:49:17.775Z,11.57
2019-04-07T04:51:54.221Z,10.43
2019-04-07T04:54:31.694Z,8.75
2019-04-07T04:57:09.093Z,9.10
2019-04-07T04:59:44.314Z,8.83
2019-04-07T05:02:19.854Z,9.55
2019-04-07T05:07:27.507Z,11.33
2019-04-07T05:10:02.222Z,8.93
2019-04-07T05:12:37.954Z,9.55
2019-04-07T05:15:13.990Z,9.03
2019-04-07T05:17:49.596Z,10.20
2019-04-07T05:20:24.046Z,10.65
2019-04-07T05:22:58.728Z,9.50
2019-04-07T05:25:33.789Z,8.83
2019-04-07T05:28:09.076Z,9.45
2019-04-07T05:33:16.854Z,8.65
2019-04-07T05:35:51.729Z,10.75
2019-04-07T05:38:26.792Z,9.53
2019-04-07T05:43:34.735Z,10.08
2019-04-07T05:46:10.682Z,8.45
2019-04-07T05:48:45.334Z,12.03
2019-04-07T05:51:20.938Z,10.65
2019-04-07T05:53:55.868Z,8.70
2019-04-07T05:59:03.383Z,11.12
2019-04-07T06:01:38.038Z,9.65
2019-04-07T06:04:16.947Z,9.67
2019-04-07T06:06:54.167Z,11.97
2019-04-07T06:09:28.062Z,11.88
2019-04-07T06:12:08.462Z,11.33
2019-04-07T06:14:40.983Z,11.75
2019-04-07T06:17:17.110Z,12.55
2019-04-07T06:19:52.694Z,16.27
2019-04-07T06:22:28.399Z,13.62
2019-04-07T06:25:04.599Z,12.43
2019-04-07T06:27:40.547Z,11.25
2019-04-07T06:30:16.551Z,10.08
2019-04-07T06:32:52.813Z,10.48
2019-04-07T06:35:28.152Z,12.35
2019-04-07T06:38:06.710Z,11.30
2019-04-07T06:40:40.544Z,10.50
2019-04-07T06:43:15.760Z,10.32
2019-04-07T06:46:08.648Z,10.28
2019-04-07T06:49:11.172Z,10.93
2019-04-07T06:52:02.914Z,9.03
2019-04-07T06:54:41.521Z,8.85
2019-04-07T06:57:36.039Z,9.95
2019-04-07T07:00:38.877Z,9.70
2019-04-07T07:03:29.108Z,9.23
2019-04-07T07:06:18.493Z,10.60
2019-04-07T07:09:13.774Z,10.30
2019-04-07T07:12:18.333Z,8.70
2019-04-07T07:14:58.271Z,11.25
2019-04-07T07:17:59.047Z,7.78
2019-04-07T07:20:55.679Z,10.15
2019-04-07T07:23:37.527Z,8.65
2019-04-07T07:26:13.467Z,6.87
2019-04-07T07:28:56.463Z,6.53
2019-04-07T07:31:32.353Z,9.08
2019-04-07T07:34:09.290Z,8.28
2019-04-07T07:36:46.522Z,7.67
2019-04-07T07:39:22.973Z,6.80
2019-04-07T07:41:58.499Z,6.08
2019-04-07T07:44:36.689Z,10.25
2019-04-07T07:47:11.870Z,7.25
2019-04-07T07:49:48.208Z,5.15
2019-04-07T07:52:23.507Z,6.15
2019-04-07T07:55:00.891Z,7.10
2019-04-07T07:57:35.548Z,10.20
2019-04-07T08:00:11.338Z,10.28
2019-04-07T08:02:50.210Z,10.28
2019-04-07T08:05:24.119Z,12.00
2019-04-07T08:08:00.610Z,8.95
2019-04-07T08:10:36.400Z,6.40
2019-04-07T08:13:11.501Z,9.40
2019-04-07T08:18:21.010Z,8.03
2019-04-07T08:20:56.776Z,8.47
2019-04-07T08:23:32.036Z,11.60
2019-04-07T08:26:06.771Z,9.35
2019-04-07T08:28:42.718Z,8.13
2019-04-07T08:31:21.124Z,6.62
2019-04-07T08:33:54.882Z,6.90
2019-04-07T08:36:30.207Z,5.95
2019-04-07T08:39:20.845Z,6.87
2019-04-07T08:41:48.215Z,8.55
2019-04-07T08:44:26.960Z,9.88
2019-04-07T08:47:01.385Z,9.50
2019-04-07T08:49:36.552Z,11.45
2019-04-07T08:52:12.793Z,12.68
2019-04-07T08:54:50.557Z,7.33
2019-04-07T08:57:27.272Z,8.60
2019-04-07T09:00:01.951Z,8.00
2019-04-07T09:02:37.548Z,10.88
2019-04-07T09:07:46.017Z,8.48
2019-04-07T09:10:33.257Z,8.48
2019-04-07T09:13:09.534Z,9.50
2019-04-07T09:15:54.558Z,10.13
2019-04-07T09:18:57.439Z,10.32
2019-04-07T09:21:52.538Z,9.65
2019-04-07T09:24:46.139Z,8.60
2019-04-07T09:27:49.502Z,10.93
2019-04-07T09:30:40.039Z,14.80
2019-04-07T09:33:53.976Z,11.85
2019-04-07T09:36:47.908Z,9.13
2019-04-07T09:39:56.280Z,8.73
2019-04-07T09:42:35.996Z,9.98
2019-04-07T09:45:33.536Z,8.90
2019-04-07T09:48:30.643Z,9.80
2019-04-07T09:51:15.454Z,7.35
2019-04-07T09:54:12.372Z,10.50
2019-04-07T09:57:07.396Z,12.68
2019-04-07T10:00:08.575Z,8.43
2019-04-07T10:03:09.552Z,11.55
2019-04-07T10:06:01.811Z,10.98
2019-04-07T10:08:47.756Z,8.93
2019-04-07T10:11:40.692Z,6.93
2019-04-07T10:14:30.754Z,8.38
2019-04-07T10:17:22.155Z,10.70
2019-04-07T10:20:22.044Z,9.20
2019-04-07T10:23:33.365Z,10.25
2019-04-07T10:26:24.716Z,11.18
2019-04-07T10:29:23.058Z,10.25
2019-04-07T10:32:07.892Z,10.25
2019-04-07T10:34:54.376Z,7.73
2019-04-07T10:37:53.027Z,9.10
2019-04-07T10:40:47.261Z,8.33
2019-04-07T10:43:39.393Z,9.78
2019-04-07T10:46:23.065Z,9.08
2019-04-07T10:52:31.548Z,7.35
2019-04-07T10:55:22.219Z,6.70
2019-04-07T10:58:10.607Z,6.37
2019-04-07T11:01:05.123Z,7.23
2019-04-07T11:04:00.227Z,7.55
2019-04-07T11:06:52.704Z,9.43
2019-04-07T11:09:45.891Z,7.43
2019-04-07T11:12:58.216Z,9.37
2019-04-07T11:16:08.212Z,7.17
2019-04-07T11:18:54.955Z,6.83
2019-04-07T11:22:01.241Z,6.60
2019-04-07T11:24:51.497Z,6.57
2019-04-07T11:27:49.030Z,6.77
2019-04-07T11:30:42.118Z,6.70
2019-04-07T11:33:29.044Z,8.50
2019-04-07T11:36:28.898Z,6.10
2019-04-07T11:39:17.715Z,6.93
2019-04-07T11:42:21.771Z,9.00
2019-04-07T11:45:23.704Z,9.13
2019-04-07T11:48:18.829Z,7.93
2019-04-07T11:51:16.722Z,11.57
2019-04-07T11:54:16.485Z,7.57
2019-04-07T11:57:06.866Z,8.67
2019-04-07T12:00:03.690Z,6.93
2019-04-07T12:03:05.032Z,5.93
2019-04-07T12:05:55.807Z,7.23
2019-04-07T12:08:50.024Z,7.33
2019-04-07T12:11:43.264Z,8.50
2019-04-07T12:14:37.390Z,8.23
2019-04-07T12:17:30.085Z,9.40
2019-04-07T12:20:12.315Z,9.07
2019-04-07T12:23:00.399Z,14.33
2019-04-07T12:26:06.068Z,14.33
2019-04-07T12:28:58.379Z,7.33
2019-04-07T12:31:52.138Z,6.90
2019-04-07T12:34:55.653Z,6.47
2019-04-07T12:37:46.592Z,12.37
2019-04-07T12:40:39.600Z,8.33
2019-04-07T12:43:42.784Z,9.70
2019-04-07T12:46:24.655Z,8.70
2019-04-07T12:49:19.760Z,7.77
2019-04-07T12:52:17.373Z,6.28
2019-04-07T12:55:18.028Z,7.90
2019-04-07T12:58:11.360Z,6.70
2019-04-07T13:01:12.924Z,6.03
2019-04-07T13:04:04.681Z,6.40
2019-04-07T13:06:57.781Z,7.60
2019-04-07T13:10:03.369Z,6.13
2019-04-07T13:12:59.374Z,6.33
2019-04-07T13:15:53.803Z,6.43
2019-04-07T13:18:46.696Z,8.67
2019-04-07T13:21:56.516Z,9.30
2019-04-07T13:24:48.596Z,6.30
2019-04-07T13:27:45.824Z,7.65
2019-04-07T13:30:32.626Z,6.87
2019-04-07T13:33:33.008Z,7.93
2019-04-07T13:36:17.987Z,9.67
2019-04-07T13:38:57.832Z,6.83
2019-04-07T13:41:56.406Z,7.30
2019-04-07T13:45:02.552Z,11.12
2019-04-07T13:48:15.818Z,8.23
2019-04-07T13:51:21.536Z,9.48
2019-04-07T13:54:38.351Z,6.10
2019-04-07T13:57:32.334Z,7.10
2019-04-07T14:00:25.236Z,8.43
2019-04-07T14:03:25.485Z,4.60
2019-04-07T14:06:11.270Z,8.70
2019-04-07T14:09:04.370Z,5.62
2019-04-07T14:12:06.939Z,9.05
2019-04-07T14:15:15.887Z,8.25
2019-04-07T14:18:13.413Z,6.97
2019-04-07T14:21:07.552Z,6.97
2019-04-07T14:24:11.364Z,6.47
2019-04-07T14:27:02.155Z,6.63
2019-04-07T14:29:53.177Z,8.60
2019-04-07T14:32:40.367Z,11.33
2019-04-07T14:35:39.038Z,9.90
2019-04-07T14:38:31.613Z,7.87
2019-04-07T14:41:16.054Z,7.87
2019-04-07T14:44:10.175Z,6.83
2019-04-07T14:47:05.331Z,7.13
2019-04-07T14:50:00.466Z,8.15
2019-04-07T14:52:54.977Z,6.05
2019-04-07T14:55:52.783Z,7.28
2019-04-07T14:59:02.942Z,7.57
2019-04-07T15:02:00.324Z,7.50
2019-04-07T15:04:42.048Z,8.13
2019-04-07T15:07:31.204Z,7.47
2019-04-07T15:10:15.932Z,9.80
2019-04-07T15:16:33.964Z,10.68
2019-04-07T15:19:09.615Z,7.15
2019-04-07T15:22:12.126Z,6.03
2019-04-07T16:30:19.012Z,7.33
2019-04-07T16:32:54.783Z,8.08
2019-04-07T16:35:29.964Z,6.28
2019-04-07T16:40:42.126Z,6.35
2019-04-07T16:43:18.940Z,5.87
2019-04-07T16:45:54.759Z,6.22
2019-04-07T16:48:30.494Z,6.65
2019-04-07T16:51:06.050Z,6.30
2019-04-07T16:53:43.340Z,8.08
2019-04-07T16:56:21.869Z,7.78
2019-04-07T16:59:01.383Z,6.53
2019-04-07T17:01:37.863Z,6.30
2019-04-07T17:04:13.454Z,6.90
2019-04-07T17:07:03.299Z,7.37
2019-04-07T17:09:36.605Z,6.35
2019-04-07T17:12:15.010Z,6.80
2019-04-07T17:14:51.126Z,7.47
2019-04-07T17:17:28.269Z,6.37
2019-04-07T17:20:04.704Z,6.80
2019-04-07T17:22:40.387Z,7.72
2019-04-07T17:25:15.324Z,5.87
2019-04-07T17:27:50.893Z,7.72
2019-04-07T17:30:28.071Z,6.67
2019-04-07T17:33:06.662Z,8.40
2019-04-07T17:35:46.116Z,7.35
2019-04-07T17:38:26.190Z,6.62
2019-04-07T17:41:02.389Z,8.08
2019-04-07T17:43:57.936Z,6.97
2019-04-07T17:46:50.220Z,8.08
2019-04-07T17:49:59.863Z,7.72
2019-04-07T17:53:00.114Z,7.62
2019-04-07T17:55:52.773Z,7.70
2019-04-07T17:58:53.430Z,9.35
2019-04-07T18:01:46.330Z,7.97
2019-04-07T18:04:53.772Z,7.12
2019-04-07T18:07:57.199Z,8.25
2019-04-07T18:10:59.591Z,8.55
2019-04-07T18:14:05.752Z,6.65
2019-04-07T18:17:06.595Z,7.28
2019-04-07T18:20:06.553Z,7.40
2019-04-07T18:22:53.212Z,8.45
2019-04-07T18:25:51.858Z,7.20
2019-04-07T18:28:43.327Z,7.33
2019-04-07T18:31:40.197Z,7.08
2019-04-07T18:34:42.999Z,7.87
2019-04-07T18:37:54.354Z,8.85
2019-04-07T18:41:01.664Z,8.60
2019-04-07T18:44:04.505Z,8.05
2019-04-07T18:47:02.661Z,7.58
2019-04-07T18:49:55.930Z,6.72
2019-04-07T18:52:55.543Z,7.12
2019-04-07T18:55:40.285Z,6.80
2019-04-07T18:58:38.380Z,7.00
2019-04-07T19:01:25.417Z,8.15
2019-04-07T19:04:24.201Z,7.22
2019-04-07T19:07:15.176Z,9.03
2019-04-07T19:10:17.638Z,8.20
2019-04-07T19:13:12.124Z,9.40
2019-04-07T19:16:04.175Z,8.75
2019-04-07T19:18:58.559Z,9.75
2019-04-07T19:22:00.366Z,11.05
2019-04-07T19:24:57.861Z,11.55
2019-04-07T19:28:04.770Z,9.40
2019-04-07T19:31:03.156Z,9.53
2019-04-07T19:33:58.698Z,9.53
2019-04-07T19:36:52.178Z,9.88
2019-04-07T19:39:53.524Z,8.73
2019-04-07T19:42:54.736Z,13.48
2019-04-07T19:45:56.213Z,9.95
2019-04-07T19:48:54.433Z,9.78
2019-04-07T19:52:03.262Z,9.40
2019-04-07T19:55:01.813Z,9.48
2019-04-07T19:58:01.944Z,9.00
2019-04-07T20:00:56.625Z,9.33
2019-04-07T20:07:03.570Z,9.00
2019-04-07T20:10:06.704Z,10.23
2019-04-07T20:13:00.749Z,9.43
2019-04-07T20:15:59.179Z,10.23
2019-04-07T20:18:59.501Z,10.50
2019-04-07T20:21:58.299Z,9.88
2019-04-07T20:25:08.746Z,10.43
2019-04-07T20:28:09.473Z,9.33
2019-04-07T20:31:10.550Z,10.88
2019-04-07T20:34:11.817Z,11.70
2019-04-07T20:37:09.362Z,10.80
2019-04-07T20:39:56.867Z,11.05
2019-04-07T20:42:48.445Z,11.33
2019-04-07T20:45:47.461Z,12.58
2019-04-07T20:48:39.385Z,12.82
2019-04-07T20:51:48.068Z,14.05
2019-04-07T20:54:47.571Z,14.95
2019-04-07T20:57:46.347Z,13.58
2019-04-07T21:00:38.158Z,14.55
2019-04-07T21:03:49.316Z,14.20
2019-04-07T21:06:40.555Z,16.42
2019-04-07T21:09:43.903Z,15.90
2019-04-07T21:12:44.777Z,15.20
2019-04-07T21:15:36.071Z,16.10
2019-04-07T21:18:22.401Z,17.57
2019-04-07T21:21:25.656Z,16.70
2019-04-07T21:24:34.557Z,16.67
2019-04-07T21:27:27.957Z,16.70
2019-04-07T21:30:16.385Z,16.87
2019-04-07T21:33:17.399Z,16.00
2019-04-07T21:36:23.808Z,16.87
2019-04-07T21:42:32.673Z,16.50
2019-04-07T21:45:35.135Z,16.60
2019-04-07T21:48:31.992Z,16.87
2019-04-07T21:51:29.260Z,16.05
2019-04-07T21:54:14.665Z,16.55
2019-04-07T21:57:10.206Z,17.02
2019-04-07T22:00:11.089Z,17.70
2019-04-07T22:02:59.396Z,18.48
2019-04-07T22:05:58.069Z,18.10
2019-04-07T22:08:45.446Z,18.12
2019-04-07T22:11:24.718Z,17.67
2019-04-07T22:13:57.592Z,17.87
2019-04-07T22:19:11.860Z,17.35
2019-04-07T22:21:44.521Z,18.32
2019-04-07T22:26:51.570Z,17.35
2019-04-07T22:31:59.739Z,17.25
2019-04-07T22:34:35.629Z,18.20
2019-04-07T22:37:12.169Z,17.17
2019-04-07T22:39:47.361Z,17.92
2019-04-07T22:42:22.449Z,16.45
2019-04-07T22:44:57.854Z,19.12
2019-04-07T22:47:34.037Z,18.17
2019-04-07T22:52:41.973Z,18.05
2019-04-07T22:55:17.308Z,18.23
2019-04-07T22:57:53.698Z,17.37
2019-04-07T23:00:28.872Z,18.30
2019-04-07T23:05:36.103Z,18.55
2019-04-07T23:08:10.796Z,18.45
2019-04-07T23:10:46.172Z,18.52
2019-04-07T23:13:22.154Z,18.25
2019-04-07T23:16:07.134Z,19.02
2019-04-07T23:18:33.835Z,18.37
2019-04-07T23:23:42.053Z,19.05
2019-04-07T23:28:51.274Z,14.98
2019-04-07T23:31:28.310Z,20.97
2019-04-07T23:34:03.263Z,19.52
2019-04-07T23:36:38.229Z,19.62
2019-04-07T23:39:15.270Z,19.32
2019-04-07T23:41:51.255Z,19.85
2019-04-07T23:44:26.391Z,21.10
2019-04-07T23:47:02.469Z,20.77
2019-04-07T23:49:38.665Z,20.02
2019-04-07T23:52:14.585Z,18.45
2019-04-07T23:54:48.818Z,18.85
2019-04-07T23:57:24.240Z,19.85
2019-04-07T23:59:58.814Z,17.77
